createdAt,value
2019-04-06T00:02:12.316Z,14.33
2019-04-06T00:04:41.518Z,14.47
2019-04-06T00:07:10.396Z,13.77
2019-04-06T00:09:39.184Z,14.10
2019-04-06T00:12:08.084Z,14.80
2019-04-06T00:14:37.671Z,15.20
2019-04-06T00:17:06.525Z,14.57
2019-04-06T00:19:35.535Z,16.37
2019-04-06T00:22:05.142Z,17.20
2019-04-06T00:24:33.961Z,15.07
2019-04-06T00:27:03.080Z,13.93
2019-04-06T00:29:32.254Z,15.03
2019-04-06T00:32:15.027Z,14.80
2019-04-06T00:34:44.065Z,15.07
2019-04-06T00:37:12.927Z,15.87
2019-04-06T00:39:41.707Z,15.60
2019-04-06T00:42:10.855Z,15.33
2019-04-06T00:44:40.205Z,16.67
2019-04-06T00:47:09.233Z,15.93
2019-04-06T00:49:37.999Z,14.60
2019-04-06T00:52:06.799Z,16.03
2019-04-06T00:54:35.897Z,15.83
2019-04-06T00:57:04.948Z,15.37
2019-04-06T00:59:33.925Z,16.07
2019-04-06T01:02:02.716Z,15.47
2019-04-06T01:04:31.610Z,16.53
2019-04-06T01:07:00.463Z,15.23
2019-04-06T01:09:29.258Z,14.60
2019-04-06T01:11:58.334Z,14.57
2019-04-06T01:14:27.213Z,15.70
2019-04-06T01:16:56.126Z,15.20
2019-04-06T01:19:25.301Z,14.87
2019-04-06T01:21:54.189Z,13.80
2019-04-06T01:24:23.740Z,15.37
2019-04-06T01:26:52.871Z,13.30
2019-04-06T01:29:21.666Z,14.83
2019-04-06T01:31:50.593Z,16.83
2019-04-06T01:34:19.419Z,17.23
2019-04-06T01:36:48.206Z,14.87
2019-04-06T01:39:17.025Z,15.50
2019-04-06T01:41:45.917Z,15.77
2019-04-06T01:44:14.905Z,15.33
2019-04-06T01:46:44.167Z,14.00
2019-04-06T01:49:12.983Z,13.97
2019-04-06T01:51:42.158Z,12.30
2019-04-06T01:54:10.962Z,13.83
2019-04-06T01:56:39.836Z,12.30
2019-04-06T01:59:08.877Z,13.23
2019-04-06T02:01:45.044Z,12.47
2019-04-06T02:04:14.036Z,11.93
2019-04-06T02:06:43.189Z,12.87
2019-04-06T02:09:12.073Z,12.10
2019-04-06T02:11:40.898Z,12.00
2019-04-06T02:14:09.750Z,13.17
2019-04-06T02:16:38.632Z,12.80
2019-04-06T02:19:07.693Z,13.70
2019-04-06T02:21:36.509Z,12.90
2019-04-06T02:24:05.438Z,12.27
2019-04-06T02:26:34.308Z,11.70
2019-04-06T02:29:03.430Z,12.50
2019-04-06T02:32:06.805Z,13.57
2019-04-06T02:35:03.862Z,11.63
2019-04-06T02:37:48.850Z,13.37
2019-04-06T02:40:24.494Z,12.47
2019-04-06T02:42:58.424Z,13.50
2019-04-06T02:45:27.373Z,12.77
2019-04-06T02:47:56.555Z,14.37
2019-04-06T02:50:25.527Z,13.83
2019-04-06T02:52:54.765Z,13.80
2019-04-06T02:55:23.905Z,13.30
2019-04-06T02:57:52.981Z,16.77
2019-04-06T03:00:22.190Z,16.83
2019-04-06T03:02:51.438Z,16.83
2019-04-06T03:05:20.667Z,14.90
2019-04-06T03:07:49.605Z,14.50
2019-04-06T03:10:18.484Z,14.23
2019-04-06T03:12:47.409Z,14.23
2019-04-06T03:15:16.493Z,16.67
2019-04-06T03:17:45.401Z,14.30
2019-04-06T03:20:14.569Z,13.80
2019-04-06T03:22:43.830Z,13.47
2019-04-06T03:25:12.890Z,14.10
2019-04-06T03:27:41.782Z,13.13
2019-04-06T03:30:11.277Z,12.73
2019-04-06T03:32:40.493Z,13.17
2019-04-06T03:35:09.469Z,13.03
2019-04-06T03:37:38.545Z,13.23
2019-04-06T03:40:07.971Z,12.40
2019-04-06T03:42:37.076Z,14.93
2019-04-06T03:45:07.032Z,13.43
2019-04-06T03:47:36.173Z,15.30
2019-04-06T03:50:05.828Z,14.90
2019-04-06T03:52:35.005Z,14.67
2019-04-06T03:55:04.326Z,14.20
2019-04-06T03:57:33.697Z,14.33
2019-04-06T04:00:02.999Z,14.90
2019-04-06T04:02:31.956Z,15.20
2019-04-06T04:05:00.717Z,14.20
2019-04-06T04:07:29.490Z,13.97
2019-04-06T04:09:58.297Z,15.10
2019-04-06T04:12:27.232Z,15.37
2019-04-06T04:14:56.309Z,16.43
2019-04-06T04:17:25.462Z,14.33
2019-04-06T04:19:54.708Z,14.90
2019-04-06T04:22:23.517Z,15.43
2019-04-06T04:24:52.914Z,16.17
2019-04-06T04:27:28.262Z,16.60
2019-04-06T04:29:52.552Z,14.77
2019-04-06T04:32:21.375Z,13.97
2019-04-06T04:34:50.289Z,16.13
2019-04-06T04:37:19.326Z,15.03
2019-04-06T04:39:48.143Z,13.63
2019-04-06T04:42:17.177Z,14.43
2019-04-06T04:44:46.142Z,14.70
2019-04-06T04:47:15.069Z,15.77
2019-04-06T04:49:43.902Z,15.90
2019-04-06T04:52:12.722Z,18.20
2019-04-06T04:54:41.803Z,17.60
2019-04-06T04:57:10.674Z,19.53
2019-04-06T04:59:39.800Z,18.10
2019-04-06T05:02:09.433Z,17.27
2019-04-06T05:04:38.227Z,17.83
2019-04-06T05:07:07.065Z,16.13
2019-04-06T05:09:35.873Z,18.43
2019-04-06T05:12:05.178Z,16.87
2019-04-06T05:14:59.650Z,15.87
2019-04-06T05:17:29.175Z,18.57
2019-04-06T05:19:58.578Z,18.00
2019-04-06T05:22:27.927Z,17.23
2019-04-06T05:24:57.149Z,19.07
2019-04-06T05:27:26.268Z,19.70
2019-04-06T05:29:55.203Z,19.60
2019-04-06T05:32:24.024Z,21.00
2019-04-06T05:34:53.100Z,19.37
2019-04-06T05:37:22.201Z,17.70
2019-04-06T05:39:51.072Z,17.43
2019-04-06T05:42:20.116Z,17.77
2019-04-06T05:44:48.966Z,18.53
2019-04-06T05:47:17.845Z,18.47
2019-04-06T05:49:47.070Z,17.20
2019-04-06T05:52:16.211Z,17.73
2019-04-06T05:54:45.039Z,17.10
2019-04-06T05:57:13.831Z,16.03
2019-04-06T05:59:42.728Z,18.90
2019-04-06T06:02:11.889Z,17.40
2019-04-06T06:04:41.152Z,17.37
2019-04-06T06:07:10.579Z,17.70
2019-04-06T06:09:39.394Z,17.97
2019-04-06T06:12:10.593Z,18.13
2019-04-06T06:14:39.418Z,17.80
2019-04-06T06:17:08.207Z,16.63
2019-04-06T06:19:37.393Z,19.20
2019-04-06T06:22:06.465Z,16.87
2019-04-06T06:24:35.244Z,16.03
2019-04-06T06:27:03.653Z,16.67
2019-04-06T06:29:32.429Z,16.53
2019-04-06T06:32:01.472Z,17.07
2019-04-06T06:34:30.340Z,17.63
2019-04-06T06:36:59.199Z,17.00
2019-04-06T06:39:28.097Z,18.27
2019-04-06T06:41:56.860Z,16.53
2019-04-06T06:44:25.706Z,17.20
2019-04-06T06:46:54.480Z,17.00
2019-04-06T06:49:23.574Z,17.07
2019-04-06T06:51:52.360Z,16.67
2019-04-06T06:54:21.695Z,15.57
2019-04-06T06:56:51.040Z,16.20
2019-04-06T06:59:19.876Z,16.13
2019-04-06T07:01:48.906Z,14.67
2019-04-06T07:04:17.788Z,14.00
2019-04-06T07:06:46.813Z,14.57
2019-04-06T07:09:15.671Z,15.87
2019-04-06T07:11:44.460Z,15.60
2019-04-06T07:14:13.415Z,16.73
2019-04-06T07:16:42.544Z,14.87
2019-04-06T07:19:11.447Z,14.30
2019-04-06T07:21:40.329Z,14.07
2019-04-06T07:24:09.160Z,14.03
2019-04-06T07:26:40.605Z,13.43
2019-04-06T07:29:08.549Z,12.77
2019-04-06T07:31:37.399Z,13.20
2019-04-06T07:34:11.079Z,12.53
2019-04-06T07:36:39.893Z,13.93
2019-04-06T07:39:09.400Z,12.97
2019-04-06T07:41:38.030Z,13.77
2019-04-06T07:44:07.699Z,13.20
2019-04-06T07:46:36.804Z,15.27
2019-04-06T07:49:10.305Z,14.57
2019-04-06T07:51:39.269Z,14.50
2019-04-06T07:54:08.316Z,14.57
2019-04-06T07:56:37.883Z,14.60
2019-04-06T07:59:07.120Z,17.23
2019-04-06T08:01:36.345Z,16.97
2019-04-06T08:04:05.228Z,16.87
2019-04-06T08:06:34.448Z,17.33
2019-04-06T08:09:06.591Z,18.03
2019-04-06T08:11:37.185Z,15.63
2019-04-06T08:14:06.146Z,19.23
2019-04-06T08:16:35.612Z,17.97
2019-04-06T08:19:04.660Z,17.47
2019-04-06T08:21:33.846Z,19.10
2019-04-06T08:24:03.153Z,20.10
2019-04-06T08:26:32.275Z,19.53
2019-04-06T08:29:02.427Z,19.10
2019-04-06T08:31:31.765Z,21.37
2019-04-06T08:34:01.140Z,22.57
2019-04-06T08:36:30.181Z,21.33
2019-04-06T08:38:59.546Z,21.90
2019-04-06T08:41:28.589Z,22.53
2019-04-06T08:43:57.997Z,21.87
2019-04-06T08:46:26.851Z,23.37
2019-04-06T08:48:55.632Z,23.20
2019-04-06T08:51:24.439Z,25.27
2019-04-06T08:53:53.246Z,25.93
2019-04-06T08:56:22.085Z,25.70
2019-04-06T08:58:51.175Z,27.13
2019-04-06T09:01:21.278Z,27.23
2019-04-06T09:03:50.155Z,27.10
2019-04-06T09:06:19.160Z,29.70
2019-04-06T09:08:48.036Z,29.00
2019-04-06T09:11:17.832Z,27.60
2019-04-06T09:13:46.897Z,28.45
2019-04-06T09:16:16.074Z,28.40
2019-04-06T09:18:45.173Z,30.27
2019-04-06T09:21:14.987Z,28.03
2019-04-06T09:23:43.801Z,28.80
2019-04-06T09:26:13.049Z,29.80
2019-04-06T09:28:42.308Z,30.62
2019-04-06T09:31:11.234Z,28.35
2019-04-06T09:33:40.073Z,28.73
2019-04-06T09:36:09.447Z,28.65
2019-04-06T09:38:38.684Z,28.52
2019-04-06T09:41:08.121Z,29.20
2019-04-06T09:43:37.597Z,27.25
2019-04-06T09:46:23.173Z,27.17
2019-04-06T09:49:07.812Z,27.95
2019-04-06T09:52:08.485Z,25.95
2019-04-06T09:55:05.499Z,28.87
2019-04-06T09:57:39.911Z,28.77
2019-04-06T10:00:20.329Z,28.42
2019-04-06T10:03:08.238Z,27.77
2019-04-06T10:05:43.256Z,28.27
2019-04-06T10:08:49.737Z,29.90
2019-04-06T10:11:37.873Z,27.50
2019-04-06T10:14:25.888Z,26.65
2019-04-06T10:17:26.393Z,28.77
2019-04-06T10:20:26.382Z,28.83
2019-04-06T10:23:13.069Z,28.23
2019-04-06T10:25:52.082Z,27.58
2019-04-06T10:28:39.001Z,28.80
2019-04-06T10:31:42.089Z,28.52
2019-04-06T10:34:29.162Z,28.40
2019-04-06T10:37:17.133Z,28.98
2019-04-06T10:39:51.705Z,30.00
2019-04-06T10:42:37.806Z,30.15
2019-04-06T10:45:13.112Z,28.90
2019-04-06T10:48:01.259Z,30.52
2019-04-06T10:50:49.479Z,28.17
2019-04-06T10:53:31.652Z,29.25
2019-04-06T10:56:18.471Z,29.05
2019-04-06T10:58:56.999Z,28.57
2019-04-06T11:01:43.700Z,30.40
2019-04-06T11:04:20.497Z,28.40
2019-04-06T11:07:07.626Z,29.72
2019-04-06T11:10:01.761Z,30.02
2019-04-06T11:12:50.342Z,30.17
2019-04-06T11:15:37.478Z,26.40
2019-04-06T11:18:19.129Z,28.17
2019-04-06T11:21:15.674Z,28.80
2019-04-06T11:24:19.573Z,30.50
2019-04-06T11:27:10.825Z,30.17
2019-04-06T11:29:57.547Z,29.63
2019-04-06T11:32:48.599Z,30.43
2019-04-06T11:35:45.962Z,29.53
2019-04-06T11:38:27.743Z,29.83
2019-04-06T11:41:17.821Z,28.53
2019-04-06T11:44:17.829Z,30.30
2019-04-06T11:47:09.119Z,27.00
2019-04-06T11:49:46.907Z,29.20
2019-04-06T11:52:38.553Z,27.47
2019-04-06T11:55:17.188Z,27.83
2019-04-06T11:58:08.062Z,26.57
2019-04-06T12:00:47.702Z,25.80
2019-04-06T12:03:41.921Z,25.03
2019-04-06T12:06:22.010Z,26.83
2019-04-06T12:09:09.880Z,24.67
2019-04-06T12:11:46.726Z,23.62
2019-04-06T12:14:40.737Z,24.73
2019-04-06T12:17:32.196Z,23.40
2019-04-06T12:20:19.025Z,25.68
2019-04-06T12:23:05.848Z,21.52
2019-04-06T12:25:56.999Z,24.47
2019-04-06T12:28:47.074Z,25.68
2019-04-06T12:31:44.704Z,23.52
2019-04-06T12:34:38.531Z,24.27
2019-04-06T12:37:29.489Z,25.87
2019-04-06T12:40:16.322Z,23.93
2019-04-06T12:43:14.062Z,25.33
2019-04-06T12:45:59.524Z,24.23
2019-04-06T12:48:39.392Z,23.55
2019-04-06T12:51:30.598Z,24.18
2019-04-06T12:54:18.272Z,24.05
2019-04-06T12:57:03.118Z,22.70
2019-04-06T12:59:57.347Z,23.77
2019-04-06T13:02:35.981Z,23.18
2019-04-06T13:05:23.661Z,23.42
2019-04-06T13:08:20.994Z,22.62
2019-04-06T13:10:56.893Z,22.17
2019-04-06T13:13:39.013Z,21.15
2019-04-06T13:16:17.237Z,23.40
2019-04-06T13:18:53.687Z,21.20
2019-04-06T13:21:31.101Z,19.35
2019-04-06T13:24:07.536Z,20.05
2019-04-06T13:26:43.923Z,18.05
2019-04-06T13:29:30.576Z,19.65
2019-04-06T13:32:24.956Z,18.32
2019-04-06T13:35:03.946Z,19.98
2019-04-06T13:37:50.802Z,18.15
2019-04-06T13:40:34.933Z,20.27
2019-04-06T13:43:11.129Z,17.82
2019-04-06T13:45:52.425Z,19.00
2019-04-06T13:48:31.277Z,16.90
2019-04-06T13:51:23.329Z,18.45
2019-04-06T13:54:14.707Z,16.70
2019-04-06T13:56:50.284Z,18.95
2019-04-06T13:59:34.789Z,17.98
2019-04-06T14:02:17.168Z,16.57
2019-04-06T14:05:04.144Z,19.05
2019-04-06T14:08:01.582Z,16.77
2019-04-06T14:10:53.264Z,17.27
2019-04-06T14:13:29.228Z,16.57
2019-04-06T14:16:29.853Z,18.95
2019-04-06T14:19:27.025Z,17.37
2019-04-06T14:22:06.376Z,17.80
2019-04-06T14:24:43.809Z,16.65
2019-04-06T14:27:47.019Z,16.37
2019-04-06T14:30:50.456Z,16.93
2019-04-06T14:33:37.203Z,18.17
2019-04-06T14:36:19.204Z,16.30
2019-04-06T14:38:58.870Z,17.37
2019-04-06T14:41:49.961Z,17.82
2019-04-06T14:44:37.603Z,16.20
2019-04-06T14:47:27.477Z,15.93
2019-04-06T14:50:18.721Z,16.27
2019-04-06T14:53:09.432Z,15.63
2019-04-06T14:55:42.885Z,16.80
2019-04-06T14:58:36.241Z,16.35
2019-04-06T15:01:11.880Z,17.82
2019-04-06T15:04:06.186Z,16.10
2019-04-06T15:07:10.800Z,17.10
2019-04-06T15:09:38.903Z,15.83
2019-04-06T15:12:14.005Z,16.60
2019-04-06T15:15:05.161Z,16.10
2019-04-06T15:17:47.484Z,16.67
2019-04-06T15:20:38.607Z,17.80
2019-04-06T15:23:15.611Z,17.30
2019-04-06T15:26:09.933Z,18.62
2019-04-06T15:28:53.999Z,16.27
2019-04-06T15:31:48.472Z,17.62
2019-04-06T15:34:34.875Z,16.95
2019-04-06T15:37:10.978Z,18.00
2019-04-06T15:39:58.604Z,18.40
2019-04-06T15:43:05.614Z,16.65
2019-04-06T15:45:47.185Z,16.20
2019-04-06T15:48:39.901Z,17.35
2019-04-06T15:51:27.030Z,17.55
2019-04-06T15:54:18.237Z,17.92
2019-04-06T15:57:09.737Z,18.05
2019-04-06T15:59:50.446Z,17.67
2019-04-06T16:02:29.992Z,16.90
2019-04-06T16:05:15.534Z,17.50
2019-04-06T16:08:02.581Z,17.32
2019-04-06T16:10:48.076Z,17.10
2019-04-06T16:13:35.981Z,16.90
2019-04-06T16:16:12.079Z,18.17
2019-04-06T16:19:09.209Z,16.32
2019-04-06T16:21:51.168Z,17.48
2019-04-06T16:25:21.909Z,16.62
2019-04-06T16:28:10.266Z,17.17
2019-04-06T16:30:50.569Z,19.37
2019-04-06T16:33:34.451Z,16.60
2019-04-06T16:36:22.455Z,16.57
2019-04-06T16:39:13.484Z,18.03
2019-04-06T16:42:01.429Z,16.90
2019-04-06T16:44:41.280Z,17.92
2019-04-06T16:47:32.248Z,17.10
2019-04-06T16:50:20.661Z,16.40
2019-04-06T16:53:08.141Z,16.20
2019-04-06T16:56:08.329Z,14.53
2019-04-06T16:58:47.911Z,16.97
2019-04-06T17:01:36.846Z,14.33
2019-04-06T17:04:18.468Z,15.57
2019-04-06T17:07:11.260Z,15.93
2019-04-06T17:09:48.011Z,15.53
2019-04-06T17:12:30.620Z,17.17
2019-04-06T17:15:17.228Z,16.40
2019-04-06T17:18:12.247Z,16.03
2019-04-06T17:20:50.438Z,16.67
2019-04-06T17:23:53.758Z,15.70
2019-04-06T17:26:45.552Z,15.90
2019-04-06T17:29:27.529Z,16.77
2019-04-06T17:32:05.197Z,15.10
2019-04-06T17:34:54.309Z,15.87
2019-04-06T17:37:48.453Z,15.80
2019-04-06T17:40:24.206Z,14.60
2019-04-06T17:43:11.178Z,15.03
2019-04-06T17:45:56.547Z,14.33
2019-04-06T17:48:43.352Z,14.27
2019-04-06T17:51:43.492Z,16.20
2019-04-06T17:54:31.765Z,18.87
2019-04-06T17:57:16.448Z,20.20
2019-04-06T18:00:03.429Z,19.93
2019-04-06T18:03:00.566Z,18.57
2019-04-06T18:05:48.521Z,16.97
2019-04-06T18:08:48.958Z,17.53
2019-04-06T18:11:27.151Z,16.60
2019-04-06T18:13:56.329Z,16.13
2019-04-06T18:16:29.253Z,14.07
2019-04-06T18:18:58.777Z,15.60
2019-04-06T18:21:27.906Z,24.60
2019-04-06T18:23:56.874Z,21.73
2019-04-06T18:26:25.763Z,17.13
2019-04-06T18:28:54.554Z,16.47
2019-04-06T18:31:31.325Z,16.13
2019-04-06T18:34:01.437Z,17.03
2019-04-06T18:36:50.436Z,15.53
2019-04-06T18:39:19.626Z,15.03
2019-04-06T18:41:48.824Z,14.77
2019-04-06T18:44:17.595Z,14.93
2019-04-06T18:46:46.456Z,15.23
2019-04-06T18:49:15.345Z,15.83
2019-04-06T18:51:44.418Z,16.70
2019-04-06T18:54:13.421Z,17.57
2019-04-06T18:56:42.338Z,18.20
2019-04-06T18:59:11.168Z,17.53
2019-04-06T19:01:40.401Z,15.90
2019-04-06T19:04:10.387Z,16.97
2019-04-06T19:06:40.007Z,16.97
2019-04-06T19:09:20.516Z,17.27
2019-04-06T19:11:40.824Z,16.43
2019-04-06T19:14:10.500Z,16.23
2019-04-06T19:16:39.490Z,15.97
2019-04-06T19:19:09.154Z,17.60
2019-04-06T19:21:38.721Z,18.53
2019-04-06T19:24:07.757Z,16.33
2019-04-06T19:26:37.825Z,17.33
2019-04-06T19:29:07.648Z,15.70
2019-04-06T19:31:36.494Z,16.93
2019-04-06T19:34:05.969Z,16.50
2019-04-06T19:36:35.258Z,16.53
2019-04-06T19:39:07.684Z,17.03
2019-04-06T19:41:37.057Z,18.47
2019-04-06T19:44:05.986Z,17.53
2019-04-06T19:46:35.180Z,16.60
2019-04-06T19:49:04.217Z,17.97
2019-04-06T19:51:33.604Z,17.80
2019-04-06T19:54:04.689Z,18.20
2019-04-06T19:56:33.283Z,19.53
2019-04-06T19:59:02.899Z,18.30
2019-04-06T20:01:32.267Z,18.87
2019-04-06T20:04:01.463Z,19.87
2019-04-06T20:06:30.730Z,18.50
2019-04-06T20:08:59.629Z,19.53
2019-04-06T20:11:28.584Z,20.67
2019-04-06T20:13:58.757Z,19.93
2019-04-06T20:16:27.597Z,20.23
2019-04-06T20:18:57.092Z,18.67
2019-04-06T20:23:56.174Z,19.17
2019-04-06T20:26:25.513Z,19.13
2019-04-06T20:28:54.877Z,20.33
2019-04-06T20:31:24.120Z,19.07
2019-04-06T20:33:54.076Z,18.87
2019-04-06T20:36:23.234Z,19.30
2019-04-06T20:38:52.630Z,19.03
2019-04-06T20:41:22.134Z,20.07
2019-04-06T20:43:51.097Z,19.03
2019-04-06T20:46:20.604Z,20.40
2019-04-06T20:48:50.136Z,22.03
2019-04-06T20:51:18.984Z,22.43
2019-04-06T20:53:47.822Z,20.83
2019-04-06T20:56:17.121Z,21.83
2019-04-06T20:58:45.948Z,20.77
2019-04-06T21:01:14.809Z,19.90
2019-04-06T21:03:43.675Z,19.50
2019-04-06T21:06:13.397Z,20.23
2019-04-06T21:08:42.386Z,19.17
2019-04-06T21:11:11.229Z,20.33
2019-04-06T21:13:40.802Z,19.23
2019-04-06T21:16:10.218Z,19.67
2019-04-06T21:18:39.932Z,19.43
2019-04-06T21:21:08.802Z,20.27
2019-04-06T21:23:38.399Z,20.17
2019-04-06T21:26:07.334Z,20.37
2019-04-06T21:28:36.472Z,22.33
2019-04-06T21:31:05.332Z,34.47
2019-04-06T21:33:34.126Z,38.83
2019-04-06T21:36:03.271Z,36.07
2019-04-06T21:38:32.460Z,33.00
2019-04-06T21:41:01.230Z,31.73
2019-04-06T21:43:30.098Z,28.97
2019-04-06T21:45:58.942Z,27.57
2019-04-06T21:48:28.040Z,26.43
2019-04-06T21:50:57.242Z,25.80
2019-04-06T21:53:26.389Z,26.83
2019-04-06T21:56:01.687Z,23.77
2019-04-06T21:58:27.061Z,21.43
2019-04-06T22:00:57.899Z,20.63
2019-04-06T22:03:27.001Z,20.70
2019-04-06T22:05:56.669Z,22.33
2019-04-06T22:08:25.933Z,22.30
2019-04-06T22:10:54.995Z,22.47
2019-04-06T22:13:24.945Z,22.67
2019-04-06T22:15:53.964Z,23.27
2019-04-06T22:18:22.841Z,25.83
2019-04-06T22:20:52.001Z,24.97
2019-04-06T22:23:20.908Z,24.60
2019-04-06T22:25:50.358Z,26.27
2019-04-06T22:28:19.992Z,26.27
2019-04-06T22:30:48.776Z,26.47
2019-04-06T22:33:17.577Z,25.57
2019-04-06T22:35:46.440Z,26.27
2019-04-06T22:38:15.753Z,26.03
2019-04-06T22:40:45.135Z,25.93
2019-04-06T22:43:14.630Z,25.83
2019-04-06T22:45:43.797Z,25.70
2019-04-06T22:48:13.689Z,28.43
2019-04-06T22:50:42.998Z,25.50
2019-04-06T22:53:12.266Z,26.53
2019-04-06T22:55:41.411Z,24.30
2019-04-06T22:58:10.361Z,25.57
2019-04-06T23:00:44.294Z,24.83
2019-04-06T23:03:43.715Z,24.00
2019-04-06T23:06:16.327Z,24.37
2019-04-06T23:08:45.223Z,26.33
2019-04-06T23:11:14.060Z,24.27
2019-04-06T23:13:43.742Z,24.57
2019-04-06T23:16:12.831Z,21.57
2019-04-06T23:18:42.724Z,22.50
2019-04-06T23:21:12.027Z,23.47
2019-04-06T23:23:40.885Z,22.13
2019-04-06T23:26:10.054Z,22.50
2019-04-06T23:28:38.950Z,24.00
2019-04-06T23:31:08.280Z,22.10
2019-04-06T23:33:37.991Z,20.97
2019-04-06T23:36:07.771Z,27.43
2019-04-06T23:38:37.339Z,23.80
2019-04-06T23:41:06.757Z,21.70
2019-04-06T23:43:35.927Z,23.63
2019-04-06T23:46:05.053Z,23.80
2019-04-06T23:48:33.856Z,22.57
2019-04-06T23:51:03.014Z,21.90
2019-04-06T23:53:31.845Z,21.50
2019-04-06T23:56:01.202Z,21.73
2019-04-06T23:58:30.057Z,21.50
